createdAt,value
2022-11-21T00:00:50.906Z,97745.16
2022-11-21T00:03:53.077Z,97749.81
2022-11-21T00:06:55.217Z,97725.97
2022-11-21T00:09:57.271Z,97737.88
2022-11-21T00:12:59.370Z,97724.78
2022-11-21T00:16:10.485Z,97724.78
2022-11-21T00:19:12.556Z,97714.66
2022-11-21T00:22:14.751Z,97714.13
2022-11-21T00:25:17.008Z,97701.03
2022-11-21T00:28:19.144Z,97699.31
2022-11-21T00:31:22.885Z,97693.78
2022-11-21T00:34:25.226Z,97687.09
2022-11-21T00:37:27.748Z,97684.84
2022-11-21T00:40:29.845Z,97686.78
2022-11-21T00:43:32.319Z,97682.13
2022-11-21T00:46:34.393Z,97679.16
2022-11-21T00:49:36.542Z,97674.09
2022-11-21T00:52:38.595Z,97680.13
2022-11-21T00:55:41.881Z,97671.72
2022-11-21T00:58:43.957Z,97672.41
2022-11-21T01:01:46.076Z,97675.13
2022-11-21T01:04:48.193Z,97673.47
2022-11-21T01:07:50.793Z,97677.50
2022-11-21T01:10:52.860Z,97669.88
2022-11-21T01:13:55.002Z,97663.44
2022-11-21T01:16:57.057Z,97669.56
2022-11-21T01:19:59.134Z,97662.44
2022-11-21T01:23:01.186Z,97653.81
2022-11-21T01:26:13.305Z,97660.16
2022-11-21T01:29:15.361Z,97661.25
2022-11-21T01:32:17.382Z,97659.84
2022-11-21T01:35:19.597Z,97667.72
2022-11-21T01:38:21.677Z,97668.00
2022-11-21T01:41:46.746Z,97659.84
2022-11-21T01:44:56.844Z,97650.97
2022-11-21T01:47:58.900Z,97663.25
2022-11-21T01:51:21.395Z,97649.00
2022-11-21T01:54:37.521Z,97650.00
2022-11-21T01:57:44.965Z,97641.78
2022-11-21T02:00:47.076Z,97631.13
2022-11-21T02:03:49.160Z,97634.00
2022-11-21T02:06:51.545Z,97630.69
2022-11-21T02:09:56.837Z,97635.09
2022-11-21T02:12:59.308Z,97634.53
2022-11-21T02:16:02.626Z,97623.09
2022-11-21T02:19:04.973Z,97622.97
2022-11-21T02:22:24.837Z,97620.34
2022-11-21T02:25:38.543Z,97606.19
2022-11-21T02:28:41.690Z,97612.78
2022-11-21T02:31:43.741Z,97601.81
2022-11-21T02:34:45.765Z,97598.56
2022-11-21T02:37:53.057Z,97599.22
2022-11-21T02:41:16.021Z,97596.69
2022-11-21T02:44:29.533Z,97588.13
2022-11-21T02:47:31.887Z,97594.22
2022-11-21T02:50:36.170Z,97589.50
2022-11-21T02:53:38.253Z,97580.41
2022-11-21T02:56:40.289Z,97581.81
2022-11-21T02:59:42.345Z,97573.31
2022-11-21T03:02:44.460Z,97570.59
2022-11-21T03:05:46.519Z,97564.41
2022-11-21T03:08:48.640Z,97565.06
2022-11-21T03:11:50.770Z,97559.50
2022-11-21T03:14:52.806Z,97553.09
2022-11-21T03:17:55.468Z,97554.44
2022-11-21T03:20:58.065Z,97547.28
2022-11-21T03:24:00.117Z,97534.91
2022-11-21T03:27:02.147Z,97526.66
2022-11-21T03:30:04.920Z,97532.94
2022-11-21T03:33:06.981Z,97532.25
2022-11-21T03:36:09.111Z,97523.38
2022-11-21T03:39:11.195Z,97526.44
2022-11-21T03:42:13.309Z,97503.81
2022-11-21T03:45:15.353Z,97495.22
2022-11-21T03:48:17.433Z,97498.19
2022-11-21T03:51:19.812Z,97481.84
2022-11-21T03:54:21.888Z,97485.56
2022-11-21T03:57:23.921Z,97465.38
2022-11-21T04:00:26.289Z,97468.84
2022-11-21T04:03:28.364Z,97453.88
2022-11-21T04:06:31.470Z,97444.69
2022-11-21T04:09:33.630Z,97446.72
2022-11-21T04:12:35.713Z,97453.09
2022-11-21T04:15:37.778Z,97456.44
2022-11-21T04:18:39.883Z,97459.31
2022-11-21T04:21:41.978Z,97453.09
2022-11-21T04:24:44.098Z,97453.22
2022-11-21T04:27:46.149Z,97446.00
2022-11-21T04:30:48.391Z,97438.19
2022-11-21T04:33:50.428Z,97432.75
2022-11-21T04:36:52.500Z,97432.06
2022-11-21T04:39:54.531Z,97439.94
2022-11-21T04:42:56.595Z,97438.94
2022-11-21T04:45:58.633Z,97425.59
2022-11-21T04:49:00.709Z,97432.69
2022-11-21T04:52:02.734Z,97427.63
2022-11-21T04:55:05.519Z,97429.19
2022-11-21T04:58:07.551Z,97417.84
2022-11-21T05:01:09.821Z,97412.16
2022-11-21T05:04:12.016Z,97405.09
2022-11-21T05:07:14.319Z,97399.22
2022-11-21T05:10:16.573Z,97398.41
2022-11-21T05:13:21.639Z,97378.34
2022-11-21T05:16:23.687Z,97370.22
2022-11-21T05:19:25.715Z,97369.94
2022-11-21T05:22:27.839Z,97363.41
2022-11-21T05:25:29.885Z,97347.00
2022-11-21T05:28:31.929Z,97346.47
2022-11-21T05:31:33.969Z,97341.94
2022-11-21T05:34:36.045Z,97338.28
2022-11-21T05:37:38.156Z,97334.84
2022-11-21T05:40:40.220Z,97323.25
2022-11-21T05:43:48.046Z,97318.22
2022-11-21T05:46:50.024Z,97315.13
2022-11-21T05:49:52.040Z,97307.94
2022-11-21T05:52:54.089Z,97311.94
2022-11-21T05:55:56.103Z,97308.84
2022-11-21T05:59:01.174Z,97304.53
2022-11-21T06:02:21.998Z,97293.81
2022-11-21T06:05:24.066Z,97298.00
2022-11-21T06:08:27.902Z,97299.03
2022-11-21T06:11:29.965Z,97295.63
2022-11-21T06:14:32.038Z,97302.56
2022-11-21T06:17:34.231Z,97295.88
2022-11-21T06:20:36.725Z,97293.25
2022-11-21T06:23:38.946Z,97292.88
2022-11-21T06:26:41.032Z,97286.84
2022-11-21T06:29:43.521Z,97281.91
2022-11-21T06:32:45.567Z,97274.72
2022-11-21T06:35:47.656Z,97271.97
2022-11-21T06:38:49.737Z,97269.75
2022-11-21T06:41:51.809Z,97259.94
2022-11-21T06:44:53.850Z,97245.13
2022-11-21T06:47:56.039Z,97240.59
2022-11-21T06:50:58.541Z,97235.69
2022-11-21T06:54:01.194Z,97232.25
2022-11-21T06:57:03.289Z,97226.22
2022-11-21T07:00:06.136Z,97218.94
2022-11-21T07:03:08.150Z,97215.94
2022-11-21T07:06:10.275Z,97210.38
2022-11-21T07:09:41.153Z,97191.47
2022-11-21T07:12:54.106Z,97198.31
2022-11-21T07:16:02.023Z,97201.50
2022-11-21T07:19:03.989Z,97189.09
2022-11-21T07:22:06.762Z,97181.66
2022-11-21T07:25:09.302Z,97186.69
2022-11-21T07:28:11.395Z,97174.16
2022-11-21T07:31:14.366Z,97161.50
2022-11-21T07:34:16.615Z,97144.06
2022-11-21T07:37:18.789Z,97143.50
2022-11-21T07:40:21.165Z,97140.81
2022-11-21T07:43:23.264Z,97137.59
2022-11-21T07:46:25.312Z,97148.06
2022-11-21T07:49:27.705Z,97145.13
2022-11-21T07:52:30.527Z,97141.69
2022-11-21T07:55:36.426Z,97144.63
2022-11-21T07:58:42.392Z,97148.38
2022-11-21T08:01:45.758Z,97142.94
2022-11-21T08:04:51.015Z,97137.06
2022-11-21T08:07:53.173Z,97126.59
2022-11-21T08:10:55.260Z,97119.78
2022-11-21T08:13:59.560Z,97108.66
2022-11-21T08:17:01.622Z,97105.44
2022-11-21T08:20:04.623Z,97104.66
2022-11-21T08:23:06.967Z,97097.78
2022-11-21T08:26:10.648Z,97081.03
2022-11-21T08:29:13.205Z,97077.31
2022-11-21T08:32:15.428Z,97077.91
2022-11-21T08:35:17.562Z,97066.66
2022-11-21T08:38:19.704Z,97075.75
2022-11-21T08:41:40.591Z,97078.06
2022-11-21T08:44:42.772Z,97061.56
2022-11-21T08:47:44.850Z,97055.22
2022-11-21T08:50:46.929Z,97063.53
2022-11-21T08:53:48.996Z,97062.94
2022-11-21T08:56:51.357Z,97065.66
2022-11-21T08:59:53.424Z,97064.44
2022-11-21T09:02:55.480Z,97060.66
2022-11-21T09:05:57.985Z,97061.56
2022-11-21T09:09:00.329Z,97056.59
2022-11-21T09:12:02.903Z,97058.53
2022-11-21T09:15:24.588Z,97055.31
2022-11-21T09:18:26.881Z,97061.38
2022-11-21T09:21:28.977Z,97052.44
2022-11-21T09:24:31.062Z,97047.66
2022-11-21T09:27:33.101Z,97045.34
2022-11-21T09:30:35.401Z,97036.91
2022-11-21T09:33:37.464Z,97031.22
2022-11-21T09:36:39.565Z,97032.72
2022-11-21T09:39:41.654Z,97035.97
2022-11-21T09:43:10.774Z,97030.69
2022-11-21T09:46:17.379Z,97026.78
2022-11-21T09:49:19.496Z,97017.00
2022-11-21T09:52:22.824Z,97019.38
2022-11-21T09:55:57.058Z,97009.19
2022-11-21T09:59:23.141Z,96996.50
2022-11-21T10:02:25.264Z,96989.22
2022-11-21T10:05:36.732Z,96985.38
2022-11-21T10:09:07.988Z,96968.69
2022-11-21T10:12:37.136Z,96959.38
2022-11-21T10:16:00.537Z,96951.13
2022-11-21T10:19:31.251Z,96943.69
2022-11-21T10:23:03.561Z,96935.75
2022-11-21T10:26:44.092Z,96926.19
2022-11-21T10:30:00.359Z,96910.41
2022-11-21T10:33:04.549Z,96908.84
2022-11-21T10:36:33.850Z,96894.91
2022-11-21T10:39:49.992Z,96901.66
2022-11-21T10:42:58.631Z,96892.97
2022-11-21T10:46:05.730Z,96895.13
2022-11-21T10:49:12.244Z,96899.22
2022-11-21T10:52:16.767Z,96894.03
2022-11-21T10:55:19.012Z,96888.50
2022-11-21T10:58:49.937Z,96883.66
2022-11-21T11:02:15.198Z,96880.50
2022-11-21T11:05:21.456Z,96875.13
2022-11-21T11:08:23.547Z,96869.25
2022-11-21T11:11:26.229Z,96862.63
2022-11-21T11:14:33.076Z,96861.41
2022-11-21T11:17:35.105Z,96850.53
2022-11-21T11:20:43.813Z,96840.97
2022-11-21T11:23:47.100Z,96839.94
2022-11-21T11:26:49.453Z,96842.34
2022-11-21T11:29:53.150Z,96834.88
2022-11-21T11:32:55.375Z,96827.84
2022-11-21T11:36:06.119Z,96815.16
2022-11-21T11:39:20.968Z,96804.53
2022-11-21T11:43:36.025Z,96796.69
2022-11-21T11:47:32.566Z,96789.53
2022-11-21T11:50:47.333Z,96780.34
2022-11-21T11:53:55.201Z,96778.41
2022-11-21T11:57:00.596Z,96778.91
2022-11-21T12:00:45.911Z,96772.78
2022-11-21T12:03:58.207Z,96781.25
2022-11-21T12:11:05.291Z,96759.06
2022-11-21T12:15:15.250Z,96749.50
2022-11-21T12:18:30.761Z,96738.41
2022-11-21T12:21:32.866Z,96728.50
2022-11-21T12:24:39.787Z,96713.91
2022-11-21T12:27:44.742Z,96709.78
2022-11-21T12:30:46.722Z,96709.09
2022-11-21T12:34:56.747Z,96690.44
2022-11-21T12:38:14.102Z,96690.94
2022-11-21T12:42:00.115Z,96678.03
2022-11-21T12:45:27.294Z,96662.03
2022-11-21T12:48:54.549Z,96650.16
2022-11-21T12:52:56.016Z,96648.41
2022-11-21T12:56:04.486Z,96638.09
2022-11-21T12:59:06.597Z,96636.25
2022-11-21T13:02:52.897Z,96643.69
2022-11-21T13:05:55.706Z,96639.53
2022-11-21T13:08:59.361Z,96632.09
2022-11-21T13:12:26.537Z,96624.88
2022-11-21T13:15:38.669Z,96621.94
2022-11-21T13:18:46.244Z,96621.88
2022-11-21T13:21:50.358Z,96612.91
2022-11-21T13:24:52.345Z,96613.63
2022-11-21T13:27:54.937Z,96614.09
2022-11-21T13:30:57.595Z,96608.13
2022-11-21T13:34:01.146Z,96611.91
2022-11-21T13:37:04.284Z,96605.78
2022-11-21T13:40:28.084Z,96599.94
2022-11-21T13:43:33.876Z,96589.94
2022-11-21T13:46:58.985Z,96590.41
2022-11-21T13:50:44.978Z,96580.81
2022-11-21T13:54:29.210Z,96589.13
2022-11-21T13:57:50.172Z,96579.97
2022-11-21T14:01:49.195Z,96563.34
2022-11-21T14:05:08.566Z,96563.59
2022-11-21T14:08:23.199Z,96555.91
2022-11-21T14:11:54.579Z,96554.03
2022-11-21T14:15:04.223Z,96546.84
2022-11-21T14:18:06.276Z,96543.53
2022-11-21T14:21:42.666Z,96536.03
2022-11-21T14:24:45.064Z,96532.06
2022-11-21T14:27:50.075Z,96521.88
2022-11-21T14:31:06.721Z,96514.75
2022-11-21T14:34:09.258Z,96509.72
2022-11-21T14:37:11.750Z,96500.28
2022-11-21T14:40:24.218Z,96500.34
2022-11-21T14:43:33.365Z,96497.31
2022-11-21T14:46:39.374Z,96493.47
2022-11-21T14:49:53.069Z,96483.31
2022-11-21T14:52:58.762Z,96485.94
2022-11-21T14:56:01.849Z,96483.91
2022-11-21T14:59:04.097Z,96478.50
2022-11-21T15:02:23.906Z,96477.44
2022-11-21T15:06:00.927Z,96472.59
2022-11-21T15:10:11.604Z,96465.22
2022-11-21T15:12:28.256Z,96457.69
2022-11-21T15:15:42.945Z,96445.81
2022-11-21T15:18:44.999Z,96440.34
2022-11-21T15:21:47.070Z,96445.03
2022-11-21T15:24:49.123Z,96442.59
2022-11-21T15:27:52.654Z,96438.56
2022-11-21T15:31:19.796Z,96437.50
2022-11-21T15:34:35.379Z,96428.84
2022-11-21T15:37:38.310Z,96422.81
2022-11-21T15:40:44.273Z,96428.09
2022-11-21T15:44:02.910Z,96421.81
2022-11-21T15:47:08.262Z,96422.84
2022-11-21T15:50:10.308Z,96413.13
2022-11-21T15:53:18.399Z,96415.56
2022-11-21T15:56:23.061Z,96402.91
2022-11-21T15:59:25.349Z,96404.19
2022-11-21T16:02:27.450Z,96389.50
2022-11-21T16:05:29.532Z,96388.41
2022-11-21T16:08:31.802Z,96392.66
2022-11-21T16:11:37.513Z,96386.34
2022-11-21T16:14:39.537Z,96374.53
2022-11-21T16:17:41.804Z,96378.72
2022-11-21T16:20:43.913Z,96376.88
2022-11-21T16:23:46.096Z,96366.09
2022-11-21T16:26:49.492Z,96365.03
2022-11-21T16:29:51.545Z,96361.88
2022-11-21T16:32:55.631Z,96351.91
2022-11-21T16:35:57.831Z,96356.38
2022-11-21T16:39:07.716Z,96353.47
2022-11-21T16:42:11.670Z,96347.69
2022-11-21T16:45:14.005Z,96346.09
2022-11-21T16:48:16.081Z,96345.06
2022-11-21T16:51:19.815Z,96345.28
2022-11-21T16:54:21.974Z,96338.94
2022-11-21T16:57:24.010Z,96337.06
2022-11-21T17:00:26.888Z,96341.03
2022-11-21T17:03:29.099Z,96329.53
2022-11-21T17:06:31.348Z,96327.13
2022-11-21T17:09:33.488Z,96320.84
2022-11-21T17:12:39.533Z,96320.84
2022-11-21T17:15:41.863Z,96319.78
2022-11-21T17:18:44.201Z,96315.06
2022-11-21T17:21:46.308Z,96313.72
2022-11-21T17:24:48.471Z,96305.06
2022-11-21T17:27:50.536Z,96291.94
2022-11-21T17:30:52.569Z,96295.59
2022-11-21T17:34:00.727Z,96285.06
2022-11-21T17:37:02.974Z,96291.63
2022-11-21T17:40:06.707Z,96286.84
2022-11-21T17:43:09.105Z,96279.25
2022-11-21T17:46:17.608Z,96275.06
2022-11-21T17:49:20.571Z,96266.91
2022-11-21T17:52:22.611Z,96266.38
2022-11-21T17:55:24.657Z,96262.34
2022-11-21T17:58:27.848Z,96260.56
2022-11-21T18:01:30.095Z,96252.66
2022-11-21T18:04:34.433Z,96248.38
2022-11-21T18:07:37.833Z,96232.31
2022-11-21T18:10:44.175Z,96229.44
2022-11-21T18:13:46.537Z,96218.97
2022-11-21T18:16:53.068Z,96220.19
2022-11-21T18:19:55.820Z,96208.84
2022-11-21T18:22:57.893Z,96199.22
2022-11-21T18:26:14.581Z,96204.56
2022-11-21T18:32:38.772Z,96209.34
2022-11-21T18:35:42.274Z,96215.13
2022-11-21T18:38:51.431Z,96224.44
2022-11-21T18:41:58.641Z,96214.63
2022-11-21T18:45:00.758Z,96225.00
2022-11-21T18:48:02.881Z,96225.16
2022-11-21T18:51:09.606Z,96229.19
2022-11-21T18:54:11.850Z,96219.31
2022-11-21T18:57:13.934Z,96225.81
2022-11-21T19:00:16.668Z,96215.78
2022-11-21T19:03:20.662Z,96211.28
2022-11-21T19:06:23.985Z,96205.84
2022-11-21T19:09:32.283Z,96209.66
2022-11-21T19:12:39.248Z,96204.97
2022-11-21T19:15:42.974Z,96201.91
2022-11-21T19:19:05.357Z,96203.31
2022-11-21T19:22:24.678Z,96212.34
2022-11-21T19:36:38.697Z,96194.53
2022-11-21T19:41:14.933Z,96198.06
2022-11-21T19:44:35.348Z,96198.50
2022-11-21T19:47:37.516Z,96193.41
2022-11-21T19:50:43.069Z,96192.13
2022-11-21T19:53:48.118Z,96192.69
2022-11-21T19:56:50.220Z,96190.75
2022-11-21T19:59:52.370Z,96189.03
2022-11-21T20:02:54.622Z,96182.38
2022-11-21T20:06:23.599Z,96181.97
2022-11-21T20:09:27.624Z,96181.25
2022-11-21T20:12:31.653Z,96183.78
2022-11-21T20:15:39.381Z,96183.09
2022-11-21T20:18:41.760Z,96178.47
2022-11-21T20:21:45.038Z,96174.78
2022-11-21T20:24:51.558Z,96174.09
2022-11-21T20:27:53.997Z,96172.88
2022-11-21T20:31:06.469Z,96174.41
2022-11-21T20:34:12.737Z,96172.41
2022-11-21T20:37:14.939Z,96177.69
2022-11-21T20:40:17.268Z,96175.66
2022-11-21T20:43:19.455Z,96173.78
2022-11-21T20:46:21.762Z,96175.56
2022-11-21T20:49:24.072Z,96176.75
2022-11-21T20:55:48.412Z,96170.88
2022-11-21T20:58:50.597Z,96162.66
2022-11-21T21:01:53.077Z,96157.00
2022-11-21T21:04:55.418Z,96154.03
2022-11-21T21:07:58.071Z,96153.66
2022-11-21T21:11:36.770Z,96155.75
2022-11-21T21:14:36.389Z,96150.72
2022-11-21T21:17:38.469Z,96153.13
2022-11-21T21:21:09.446Z,96138.81
2022-11-21T21:24:06.464Z,96139.84
2022-11-21T21:27:09.176Z,96138.09
2022-11-21T21:30:11.981Z,96138.91
2022-11-21T21:33:16.720Z,96140.53
2022-11-21T21:36:21.568Z,96140.16
2022-11-21T21:39:24.579Z,96136.06
2022-11-21T21:42:27.010Z,96137.25
2022-11-21T21:45:29.256Z,96128.00
2022-11-21T21:48:31.399Z,96130.22
2022-11-21T21:51:33.551Z,96117.41
2022-11-21T21:54:35.671Z,96115.75
2022-11-21T21:57:43.575Z,96117.19
2022-11-21T22:00:48.230Z,96115.16
2022-11-21T22:03:57.035Z,96110.53
2022-11-21T22:07:00.251Z,96109.66
2022-11-21T22:10:02.988Z,96108.00
2022-11-21T22:13:05.071Z,96110.00
2022-11-21T22:16:07.938Z,96109.75
2022-11-21T22:19:10.173Z,96104.91
2022-11-21T22:22:12.600Z,96106.13
2022-11-21T22:25:14.761Z,96104.50
2022-11-21T22:28:17.248Z,96103.47
2022-11-21T22:31:19.345Z,96094.84
2022-11-21T22:34:21.818Z,96097.03
2022-11-21T22:37:23.868Z,96098.78
2022-11-21T22:40:25.938Z,96096.31
2022-11-21T22:43:28.165Z,96096.44
2022-11-21T22:46:30.575Z,96084.91
2022-11-21T22:49:33.211Z,96081.19
2022-11-21T22:52:35.717Z,96088.56
2022-11-21T22:55:37.828Z,96080.75
2022-11-21T22:58:40.817Z,96082.41
2022-11-21T23:01:42.901Z,96072.97
2022-11-21T23:04:45.064Z,96064.22
2022-11-21T23:07:47.221Z,96066.56
2022-11-21T23:10:49.340Z,96065.25
2022-11-21T23:13:51.761Z,96062.72
2022-11-21T23:16:53.869Z,96065.03
2022-11-21T23:19:55.960Z,96064.34
2022-11-21T23:22:58.022Z,96061.59
2022-11-21T23:26:00.255Z,96066.47
2022-11-21T23:29:07.988Z,96062.84
2022-11-21T23:32:10.854Z,96059.53
2022-11-21T23:35:13.136Z,96063.72
2022-11-21T23:38:16.324Z,96065.69
2022-11-21T23:41:18.383Z,96060.44
2022-11-21T23:44:20.460Z,96060.66
2022-11-21T23:47:22.543Z,96067.22
2022-11-21T23:50:24.688Z,96062.41
2022-11-21T23:53:26.779Z,96065.19
2022-11-21T23:56:28.873Z,96058.13
2022-11-21T23:59:31.277Z,96064.59
